Time;durP1;ratioP1;P1;durP2;ratioP2;P2;SDS_P1;SDS_P2;PMS_P1;PMS_P2;Temp;Humidity;BMP_temperature;BMP_pressure;BME280_temperature;BME280_humidity;BME280_pressure;Samples;Min_cycle;Max_cycle;Signal;HPM_P1;HPM_P2
2022/06/16 00:00:29;;;;;;;9.35;6.03;;;;;;;;;;6183857;28;20055;-80
2022/06/16 00:03:30;;;;;;;8.60;6.70;;;;;;;;;;6174790;28;20047;-81
2022/06/16 00:06:33;;;;;;;6.68;5.97;;;;;;;;;;6180905;28;20078;-80
2022/06/16 00:09:38;;;;;;;6.45;5.60;;;;;;;;;;6144580;28;20039;-80
2022/06/16 00:12:39;;;;;;;6.38;5.75;;;;;;;;;;6179992;28;20043;-81
2022/06/16 00:15:41;;;;;;;6.68;5.75;;;;;;;;;;6169181;28;20133;-81
2022/06/16 00:18:42;;;;;;;7.68;6.00;;;;;;;;;;6184655;28;20054;-79
2022/06/16 00:21:44;;;;;;;7.18;5.95;;;;;;;;;;6172058;28;20411;-80
2022/06/16 00:24:46;;;;;;;7.47;5.68;;;;;;;;;;6193350;28;20053;-81
2022/06/16 00:27:47;;;;;;;6.72;5.82;;;;;;;;;;6178190;28;20053;-80
2022/06/16 00:30:49;;;;;;;6.57;5.75;;;;;;;;;;6176544;28;20039;-80
2022/06/16 00:33:51;;;;;;;7.60;5.75;;;;;;;;;;6170823;28;20480;-80
2022/06/16 00:36:53;;;;;;;6.63;5.78;;;;;;;;;;6152868;28;20049;-80
2022/06/16 00:39:54;;;;;;;6.43;5.72;;;;;;;;;;6173574;28;20049;-80
2022/06/16 00:42:56;;;;;;;6.60;5.65;;;;;;;;;;6171422;28;20041;-80
2022/06/16 00:46:02;;;;;;;6.70;6.00;;;;;;;;;;6169413;28;20055;-80
2022/06/16 00:49:07;;;;;;;7.20;6.22;;;;;;;;;;6187204;28;20046;-81
2022/06/16 00:52:15;;;;;;;7.90;7.10;;;;;;;;;;6182602;28;20493;-82
2022/06/16 00:55:17;;;;;;;7.15;6.45;;;;;;;;;;6173307;28;20053;-81
2022/06/16 00:58:21;;;;;;;7.50;6.47;;;;;;;;;;6183388;28;20531;-80
2022/06/16 01:01:25;;;;;;;7.70;6.13;;;;;;;;;;6170833;28;20049;-81
2022/06/16 01:08:08;;;;;;;7.18;6.38;;;;;;;;;;6134240;28;20518;-80
2022/06/16 01:13:41;;;;;;;7.00;6.30;;;;;;;;;;6141217;28;20055;-81
2022/06/16 01:15:04;;;;;;;7.95;6.55;;;;;;;;;;6152356;28;20302;-81
2022/06/16 01:18:09;;;;;;;7.93;6.35;;;;;;;;;;6174744;28;20536;-80
2022/06/16 01:21:18;;;;;;;6.95;6.18;;;;;;;;;;6173623;28;20054;-81
2022/06/16 01:24:57;;;;;;;7.63;6.63;;;;;;;;;;6183590;28;20047;-80
2022/06/16 01:28:15;;;;;;;7.13;6.43;;;;;;;;;;6172253;28;20050;-80
2022/06/16 01:31:28;;;;;;;8.70;6.35;;;;;;;;;;6151664;28;20509;-81
2022/06/16 01:35:11;;;;;;;8.70;6.68;;;;;;;;;;6182063;28;20090;-81
2022/06/16 01:38:44;;;;;;;7.90;6.57;;;;;;;;;;6167357;28;20046;-81
2022/06/16 01:41:58;;;;;;;8.35;6.75;;;;;;;;;;6164728;28;20086;-81
2022/06/16 01:45:10;;;;;;;8.35;7.10;;;;;;;;;;6169045;28;20043;-81
2022/06/16 01:48:13;;;;;;;7.43;6.32;;;;;;;;;;6169933;28;20046;-80
2022/06/16 01:51:24;;;;;;;11.27;6.55;;;;;;;;;;6169748;28;20155;-81
2022/06/16 01:54:32;;;;;;;6.68;5.97;;;;;;;;;;6188832;28;20121;-81
2022/06/16 01:57:40;;;;;;;10.60;6.30;;;;;;;;;;6164905;28;20477;-80
2022/06/16 02:00:44;;;;;;;8.65;6.57;;;;;;;;;;6178530;28;20046;-81
2022/06/16 02:03:52;;;;;;;8.70;6.53;;;;;;;;;;6177172;28;20042;-80
2022/06/16 02:06:59;;;;;;;6.95;6.18;;;;;;;;;;6174012;28;20042;-80
2022/06/16 02:10:09;;;;;;;9.75;6.88;;;;;;;;;;6162292;28;20409;-81
2022/06/16 02:13:18;;;;;;;8.73;6.00;;;;;;;;;;6168731;28;20067;-79
2022/06/16 02:16:26;;;;;;;8.85;6.70;;;;;;;;;;6156740;28;20042;-77
2022/06/16 02:19:29;;;;;;;8.20;6.20;;;;;;;;;;6185577;28;20055;-77
2022/06/16 02:22:31;;;;;;;6.88;6.18;;;;;;;;;;6173377;28;20105;-81
2022/06/16 02:25:33;;;;;;;7.37;6.47;;;;;;;;;;6185943;28;20450;-81
2022/06/16 02:29:02;;;;;;;6.78;6.15;;;;;;;;;;6172613;28;20046;-80
2022/06/16 02:32:10;;;;;;;7.50;6.80;;;;;;;;;;6166755;28;20102;-81
2022/06/16 02:35:36;;;;;;;12.45;7.13;;;;;;;;;;6175024;28;20097;-81
2022/06/16 02:38:56;;;;;;;7.40;6.47;;;;;;;;;;6166551;28;20050;-80
2022/06/16 02:42:31;;;;;;;8.10;6.43;;;;;;;;;;6145339;28;20497;-80
2022/06/16 02:45:53;;;;;;;8.90;6.43;;;;;;;;;;6139524;28;20078;-80
2022/06/16 02:49:31;;;;;;;7.68;6.65;;;;;;;;;;6175397;28;20222;-81
2022/06/16 02:52:39;;;;;;;8.95;6.95;;;;;;;;;;6168643;28;20047;-80
2022/06/16 02:55:45;;;;;;;9.57;6.57;;;;;;;;;;6169409;28;20073;-81
2022/06/16 02:58:49;;;;;;;7.93;6.88;;;;;;;;;;6177660;28;20097;-79
2022/06/16 03:01:52;;;;;;;8.35;6.50;;;;;;;;;;6143911;28;20047;-80
2022/06/16 03:04:59;;;;;;;9.43;6.82;;;;;;;;;;6164082;28;20043;-80
2022/06/16 03:08:00;;;;;;;7.97;6.82;;;;;;;;;;6168068;28;20054;-80
2022/06/16 03:11:03;;;;;;;9.33;6.53;;;;;;;;;;6172015;28;20308;-80
2022/06/16 03:14:07;;;;;;;7.85;6.90;;;;;;;;;;6168818;28;20043;-80
2022/06/16 03:17:13;;;;;;;8.18;6.85;;;;;;;;;;6181906;28;20034;-80
2022/06/16 03:20:15;;;;;;;7.80;6.47;;;;;;;;;;6181512;28;20035;-81
2022/06/16 03:23:18;;;;;;;8.20;6.55;;;;;;;;;;6167958;28;20058;-80
2022/06/16 03:26:22;;;;;;;7.38;6.68;;;;;;;;;;6169908;28;20225;-79
2022/06/16 03:29:28;;;;;;;9.63;7.38;;;;;;;;;;6166768;28;20051;-79
2022/06/16 03:32:31;;;;;;;8.30;7.40;;;;;;;;;;6183950;28;20120;-81
2022/06/16 03:35:33;;;;;;;8.95;6.85;;;;;;;;;;6162869;28;20053;-80
2022/06/16 03:38:43;;;;;;;8.70;6.97;;;;;;;;;;6183722;28;20049;-80
2022/06/16 03:41:47;;;;;;;10.57;6.80;;;;;;;;;;6149762;28;20043;-79
2022/06/16 03:44:50;;;;;;;7.55;6.70;;;;;;;;;;6169113;28;20046;-80
2022/06/16 03:47:52;;;;;;;9.80;6.97;;;;;;;;;;6154748;28;20046;-80
2022/06/16 03:50:54;;;;;;;9.50;6.30;;;;;;;;;;6186521;28;20050;-81
2022/06/16 03:53:57;;;;;;;;;;;;;;;;;;6179670;28;20832;-79
2022/06/16 03:57:04;;;;;;;9.27;6.70;;;;;;;;;;6158377;28;20387;-80
2022/06/16 04:00:09;;;;;;;8.48;7.03;;;;;;;;;;6151547;28;20513;-80
2022/06/16 04:06:41;;;;;;;10.05;8.10;;;;;;;;;;6182296;28;20046;-80
2022/06/16 04:09:43;;;;;;;9.82;7.32;;;;;;;;;;6187612;28;20492;-80
2022/06/16 04:12:44;;;;;;;8.38;6.97;;;;;;;;;;6183821;28;20140;-80
2022/06/16 04:15:51;;;;;;;8.38;7.22;;;;;;;;;;6175721;28;20648;-81
2022/06/16 04:18:55;;;;;;;8.07;7.25;;;;;;;;;;6171873;28;20042;-81
2022/06/16 04:21:57;;;;;;;7.60;6.80;;;;;;;;;;6179614;28;20129;-81
2022/06/16 04:25:15;;;;;;;7.90;6.60;;;;;;;;;;6176763;28;20053;-79
2022/06/16 04:28:18;;;;;;;7.88;6.60;;;;;;;;;;6174859;28;20069;-80
2022/06/16 04:31:26;;;;;;;8.43;7.03;;;;;;;;;;6157579;28;20047;-81
2022/06/16 04:34:29;;;;;;;9.40;7.38;;;;;;;;;;6149099;28;20043;-79
2022/06/16 04:37:32;;;;;;;11.32;7.25;;;;;;;;;;6162980;28;20194;-80
2022/06/16 04:40:34;;;;;;;7.73;6.93;;;;;;;;;;6186155;28;20193;-81
2022/06/16 04:43:41;;;;;;;8.63;6.88;;;;;;;;;;6184687;28;20050;-80
2022/06/16 04:46:46;;;;;;;8.70;7.55;;;;;;;;;;6181914;28;20458;-80
2022/06/16 04:49:49;;;;;;;8.25;7.40;;;;;;;;;;6178038;28;20042;-81
2022/06/16 04:52:52;;;;;;;9.15;7.32;;;;;;;;;;6185822;28;20057;-81
2022/06/16 04:56:01;;;;;;;7.38;6.53;;;;;;;;;;6170572;28;20174;-80
2022/06/16 04:59:36;;;;;;;8.63;7.20;;;;;;;;;;6192239;28;20046;-80
2022/06/16 05:02:49;;;;;;;9.80;7.30;;;;;;;;;;6180070;28;20074;-80
2022/06/16 05:06:02;;;;;;;8.68;6.45;;;;;;;;;;6171173;28;20069;-80
2022/06/16 05:09:25;;;;;;;7.72;6.90;;;;;;;;;;6173919;28;20062;-80
2022/06/16 05:12:45;;;;;;;7.07;6.38;;;;;;;;;;6161999;28;20093;-82
2022/06/16 05:16:05;;;;;;;8.55;7.00;;;;;;;;;;6191084;28;20097;-80
2022/06/16 05:19:46;;;;;;;8.85;7.13;;;;;;;;;;6180427;28;20100;-79
2022/06/16 05:23:00;;;;;;;7.60;6.82;;;;;;;;;;6157238;28;20054;-80
2022/06/16 05:26:25;;;;;;;7.40;6.70;;;;;;;;;;6184144;28;20108;-80
2022/06/16 05:29:47;;;;;;;8.43;6.95;;;;;;;;;;6170470;28;20080;-78
2022/06/16 05:32:49;;;;;;;8.35;6.97;;;;;;;;;;6170058;28;20553;-79
2022/06/16 05:36:13;;;;;;;9.27;7.38;;;;;;;;;;6185680;28;20051;-79
2022/06/16 05:39:26;;;;;;;9.40;6.80;;;;;;;;;;6189747;28;20042;-80
2022/06/16 05:42:57;;;;;;;7.13;6.45;;;;;;;;;;6198809;28;20042;-80
2022/06/16 05:46:20;;;;;;;9.02;6.68;;;;;;;;;;6175506;28;20043;-79
2022/06/16 05:49:30;;;;;;;7.10;6.40;;;;;;;;;;6153365;28;20177;-80
2022/06/16 05:52:37;;;;;;;7.93;6.57;;;;;;;;;;6162755;28;20050;-80
2022/06/16 05:55:50;;;;;;;8.20;6.65;;;;;;;;;;6151678;28;20039;-79
2022/06/16 05:58:52;;;;;;;6.95;6.25;;;;;;;;;;6167401;28;20045;-81
2022/06/16 06:01:57;;;;;;;7.07;6.00;;;;;;;;;;6170618;28;20043;-82
2022/06/16 06:04:58;;;;;;;7.82;6.80;;;;;;;;;;6153734;28;20165;-79
2022/06/16 06:18:11;;;;;;;7.22;6.38;;;;;;;;;;6184269;28;20042;-81
2022/06/16 06:21:13;;;;;;;6.30;5.70;;;;;;;;;;6173315;28;20050;-80
2022/06/16 06:24:14;;;;;;;5.60;5.03;;;;;;;;;;6167085;28;20039;-80
2022/06/16 06:27:38;;;;;;;6.93;5.70;;;;;;;;;;6185917;28;20151;-80
2022/06/16 06:30:41;;;;;;;6.45;5.63;;;;;;;;;;6168625;28;20081;-79
2022/06/16 06:33:42;;;;;;;5.63;4.70;;;;;;;;;;6182117;28;20052;-77
2022/06/16 06:36:44;;;;;;;7.57;4.70;;;;;;;;;;6174601;28;20038;-79
2022/06/16 06:39:46;;;;;;;6.10;5.03;;;;;;;;;;6175228;28;20520;-81
2022/06/16 06:42:48;;;;;;;7.22;4.97;;;;;;;;;;6155058;28;20054;-80
2022/06/16 06:45:50;;;;;;;6.38;4.38;;;;;;;;;;6173462;28;20440;-80
2022/06/16 06:48:52;;;;;;;5.80;4.55;;;;;;;;;;6169696;28;20046;-80
2022/06/16 06:51:54;;;;;;;5.75;4.85;;;;;;;;;;6188223;28;20053;-80
2022/06/16 06:54:55;;;;;;;5.13;4.63;;;;;;;;;;6173278;28;20123;-81
2022/06/16 06:57:57;;;;;;;4.88;4.38;;;;;;;;;;6188265;28;20050;-80
2022/06/16 07:01:01;;;;;;;7.53;5.00;;;;;;;;;;6166730;28;20133;-79
2022/06/16 07:04:03;;;;;;;6.95;4.75;;;;;;;;;;6180268;28;20046;-80
2022/06/16 07:07:06;;;;;;;6.77;4.90;;;;;;;;;;6153918;28;20043;-80
2022/06/16 07:10:09;;;;;;;5.72;4.75;;;;;;;;;;6182638;28;20488;-79
2022/06/16 07:13:10;;;;;;;4.53;4.13;;;;;;;;;;6183916;28;20776;-80
2022/06/16 07:16:12;;;;;;;6.90;4.15;;;;;;;;;;6141556;28;20051;-80
2022/06/16 07:19:13;;;;;;;5.82;3.95;;;;;;;;;;6173875;28;20053;-83
2022/06/16 07:22:15;;;;;;;4.80;4.30;;;;;;;;;;6155721;28;20079;-84
2022/06/16 07:25:18;;;;;;;6.38;4.32;;;;;;;;;;6183225;28;20042;-83
2022/06/16 07:28:20;;;;;;;6.32;4.40;;;;;;;;;;6193150;28;20078;-81
2022/06/16 07:31:22;;;;;;;4.70;4.10;;;;;;;;;;6181046;28;20121;-81
2022/06/16 07:34:36;;;;;;;5.45;4.00;;;;;;;;;;6183938;28;20059;-80
2022/06/16 07:37:38;;;;;;;4.60;3.67;;;;;;;;;;6186587;28;20042;-80
2022/06/16 07:40:40;;;;;;;4.13;3.40;;;;;;;;;;6186874;28;20042;-79
2022/06/16 07:43:42;;;;;;;6.05;3.70;;;;;;;;;;6184015;28;20106;-80
2022/06/16 07:46:46;;;;;;;5.17;3.57;;;;;;;;;;6184461;28;20397;-80
2022/06/16 07:49:49;;;;;;;4.55;3.63;;;;;;;;;;6190684;28;20167;-80
2022/06/16 07:52:51;;;;;;;4.95;3.55;;;;;;;;;;6188558;28;20049;-80
2022/06/16 07:55:52;;;;;;;3.97;3.13;;;;;;;;;;6187109;28;20046;-80
2022/06/16 07:58:54;;;;;;;3.38;3.08;;;;;;;;;;6172893;28;20397;-80
2022/06/16 08:01:56;;;;;;;3.58;3.28;;;;;;;;;;6184982;28;20054;-80
2022/06/16 08:04:58;;;;;;;6.77;3.10;;;;;;;;;;6177082;28;20496;-81
2022/06/16 08:07:59;;;;;;;6.75;3.55;;;;;;;;;;6183989;28;20125;-80
2022/06/16 08:11:01;;;;;;;4.20;3.03;;;;;;;;;;6166320;28;20055;-80
2022/06/16 08:14:04;;;;;;;5.68;3.28;;;;;;;;;;6158255;28;20054;-80
2022/06/16 08:17:16;;;;;;;4.95;3.45;;;;;;;;;;6181202;28;20046;-81
2022/06/16 08:20:18;;;;;;;4.00;3.33;;;;;;;;;;6158098;28;20068;-80
2022/06/16 08:23:20;;;;;;;3.83;3.42;;;;;;;;;;6158523;28;20126;-85
2022/06/16 08:26:22;;;;;;;5.10;3.00;;;;;;;;;;6173927;28;20038;-84
2022/06/16 08:29:25;;;;;;;3.13;2.80;;;;;;;;;;6179530;28;20043;-82
2022/06/16 08:32:26;;;;;;;5.93;2.90;;;;;;;;;;6184030;28;20053;-81
2022/06/16 08:35:28;;;;;;;5.43;3.63;;;;;;;;;;6182663;28;20117;-82
2022/06/16 08:38:30;;;;;;;7.63;3.10;;;;;;;;;;6165403;28;20047;-81
2022/06/16 08:41:58;;;;;;;4.72;2.85;;;;;;;;;;6179696;28;20114;-82
2022/06/16 08:45:06;;;;;;;5.07;2.90;;;;;;;;;;6172573;28;20046;-80
2022/06/16 08:48:39;;;;;;;4.53;2.78;;;;;;;;;;6188905;28;20050;-80
2022/06/16 08:52:01;;;;;;;4.35;2.78;;;;;;;;;;6185321;28;20053;-82
2022/06/16 08:55:25;;;;;;;2.90;2.60;;;;;;;;;;6163168;28;20061;-82
2022/06/16 08:58:50;;;;;;;3.35;2.70;;;;;;;;;;6176940;28;20716;-85
2022/06/16 09:02:08;;;;;;;5.15;2.75;;;;;;;;;;6176267;28;20050;-84
2022/06/16 09:05:37;;;;;;;4.43;2.70;;;;;;;;;;6180612;28;20070;-85
2022/06/16 09:10:14;;;;;;;4.45;2.60;;;;;;;;;;6171548;28;20122;-84
2022/06/16 09:13:01;;;;;;;4.13;2.83;;;;;;;;;;6165950;28;20046;-84
2022/06/16 09:16:34;;;;;;;4.32;3.10;;;;;;;;;;6178019;28;20097;-85
2022/06/16 09:19:45;;;;;;;4.40;2.58;;;;;;;;;;6173636;28;20421;-84
2022/06/16 09:23:14;;;;;;;4.80;2.65;;;;;;;;;;6163961;28;20044;-84
2022/06/16 09:26:34;;;;;;;3.10;2.25;;;;;;;;;;6171387;28;20127;-85
2022/06/16 09:29:42;;;;;;;3.67;2.30;;;;;;;;;;6163211;28;20047;-85
2022/06/16 09:32:57;;;;;;;4.95;2.38;;;;;;;;;;6175523;28;20058;-83
2022/06/16 09:36:06;;;;;;;5.72;2.47;;;;;;;;;;6170483;28;20130;-82
2022/06/16 09:39:16;;;;;;;4.72;2.42;;;;;;;;;;6176624;28;20034;-80
2022/06/16 09:42:40;;;;;;;3.80;2.42;;;;;;;;;;6171022;28;20086;-82
2022/06/16 09:45:50;;;;;;;2.58;2.30;;;;;;;;;;6188142;28;20050;-82
2022/06/16 09:49:14;;;;;;;4.53;1.90;;;;;;;;;;6155969;28;20125;-83
2022/06/16 09:52:49;;;;;;;3.28;2.20;;;;;;;;;;6177314;28;20659;-83
2022/06/16 09:56:05;;;;;;;3.20;2.30;;;;;;;;;;6153127;28;20036;-85
2022/06/16 09:59:16;;;;;;;8.65;5.07;;;;;;;;;;6171911;28;20824;-84
2022/06/16 10:02:29;;;;;;;4.93;2.00;;;;;;;;;;6155784;28;20500;-80
2022/06/16 10:06:01;;;;;;;3.92;1.73;;;;;;;;;;6171310;28;20046;-80
2022/06/16 10:09:23;;;;;;;1.92;1.67;;;;;;;;;;6174889;28;20131;-80
2022/06/16 10:13:03;;;;;;;4.05;1.60;;;;;;;;;;6179552;28;20126;-81
2022/06/16 10:16:18;;;;;;;3.88;1.85;;;;;;;;;;6170234;28;20114;-82
2022/06/16 10:19:23;;;;;;;6.57;2.00;;;;;;;;;;6176717;28;20046;-78
2022/06/16 10:22:28;;;;;;;2.70;1.70;;;;;;;;;;6174123;28;20489;-79
2022/06/16 10:25:42;;;;;;;3.72;1.90;;;;;;;;;;6162464;28;20594;-77
2022/06/16 10:29:05;;;;;;;2.65;1.85;;;;;;;;;;6179801;28;20600;-77
2022/06/16 10:32:16;;;;;;;1.67;1.40;;;;;;;;;;6149226;28;20104;-78
2022/06/16 10:35:20;;;;;;;1.92;1.60;;;;;;;;;;6178033;28;20419;-77
2022/06/16 10:38:35;;;;;;;2.25;1.60;;;;;;;;;;6172187;28;20042;-80
2022/06/16 10:42:14;;;;;;;2.53;1.80;;;;;;;;;;6175901;28;20416;-80
2022/06/16 10:45:23;;;;;;;2.88;1.90;;;;;;;;;;6182195;28;20172;-80
2022/06/16 10:48:34;;;;;;;2.53;1.80;;;;;;;;;;6182917;28;20090;-78
2022/06/16 10:51:52;;;;;;;2.55;1.60;;;;;;;;;;6181447;28;20057;-78
2022/06/16 10:55:18;;;;;;;3.78;1.70;;;;;;;;;;6175795;28;20048;-80
2022/06/16 10:58:24;;;;;;;2.40;1.67;;;;;;;;;;6179921;28;20149;-80
2022/06/16 11:01:41;;;;;;;2.45;2.03;;;;;;;;;;6173927;28;20093;-80
2022/06/16 11:04:43;;;;;;;2.15;1.95;;;;;;;;;;6150273;28;20043;-79
2022/06/16 11:07:50;;;;;;;2.38;1.70;;;;;;;;;;6176119;28;20057;-79
2022/06/16 11:10:55;;;;;;;1.58;1.48;;;;;;;;;;6181565;28;20046;-80
2022/06/16 11:13:57;;;;;;;2.22;1.80;;;;;;;;;;6152393;28;20962;-80
2022/06/16 11:17:01;;;;;;;2.45;1.63;;;;;;;;;;6184119;28;20404;-79
2022/06/16 11:20:40;;;;;;;2.00;1.80;;;;;;;;;;6159967;28;20042;-80
2022/06/16 11:23:49;;;;;;;3.05;2.00;;;;;;;;;;6184478;28;20052;-79
2022/06/16 11:27:00;;;;;;;2.03;1.60;;;;;;;;;;6181426;28;20129;-79
2022/06/16 11:30:03;;;;;;;2.53;1.60;;;;;;;;;;6182586;28;20057;-81
2022/06/16 11:34:06;;;;;;;1.80;1.60;;;;;;;;;;6176211;28;20120;-80
2022/06/16 11:36:50;;;;;;;3.70;1.92;;;;;;;;;;6165787;28;20126;-80
2022/06/16 11:40:16;;;;;;;3.17;1.90;;;;;;;;;;6181082;28;20729;-78
2022/06/16 11:43:26;;;;;;;2.03;1.70;;;;;;;;;;6170845;28;20461;-78
2022/06/16 11:46:38;;;;;;;2.47;1.67;;;;;;;;;;6149578;28;20049;-78
2022/06/16 11:50:09;;;;;;;2.20;1.60;;;;;;;;;;6178836;28;20055;-79
2022/06/16 11:53:38;;;;;;;1.98;1.42;;;;;;;;;;6151996;28;20194;-79
2022/06/16 11:56:49;;;;;;;3.75;1.60;;;;;;;;;;6184778;28;20122;-78
2022/06/16 12:00:22;;;;;;;1.88;1.75;;;;;;;;;;6177699;28;20196;-77
2022/06/16 12:04:01;;;;;;;2.20;1.70;;;;;;;;;;6171552;28;20043;-79
2022/06/16 12:07:09;;;;;;;2.17;1.90;;;;;;;;;;6179767;28;20043;-78
2022/06/16 12:10:29;;;;;;;;;;;;;;;;;;6156319;28;20121;-78
2022/06/16 12:13:56;;;;;;;2.13;1.92;;;;;;;;;;6183825;28;20006;-80
2022/06/16 12:17:09;;;;;;;2.03;1.83;;;;;;;;;;6180646;28;20053;-80
2022/06/16 12:20:14;;;;;;;1.73;1.63;;;;;;;;;;6186496;28;20053;-81
2022/06/16 12:23:35;;;;;;;2.28;1.90;;;;;;;;;;6178211;28;20043;-79
2022/06/16 12:26:57;;;;;;;3.47;1.85;;;;;;;;;;6183456;28;20077;-80
2022/06/16 12:30:11;;;;;;;1.83;1.50;;;;;;;;;;6183584;28;20062;-81
2022/06/16 12:33:19;;;;;;;1.88;1.38;;;;;;;;;;6189252;28;20308;-79
2022/06/16 12:36:25;;;;;;;2.38;1.40;;;;;;;;;;6188403;28;20042;-79
2022/06/16 12:39:36;;;;;;;1.95;1.33;;;;;;;;;;6189025;28;20054;-78
2022/06/16 12:42:51;;;;;;;2.10;1.60;;;;;;;;;;6189572;28;20070;-77
2022/06/16 12:46:02;;;;;;;2.05;1.85;;;;;;;;;;6193211;28;20189;-80
2022/06/16 12:49:21;;;;;;;2.78;1.40;;;;;;;;;;6195101;28;20054;-79
2022/06/16 12:52:37;;;;;;;1.55;1.45;;;;;;;;;;6187742;28;20053;-78
2022/06/16 12:55:53;;;;;;;2.05;1.40;;;;;;;;;;6161152;28;20058;-80
2022/06/16 12:59:05;;;;;;;2.10;1.38;;;;;;;;;;6181154;28;20523;-82
2022/06/16 13:02:09;;;;;;;;;;;;;;;;;;6185582;28;20046;-78
2022/06/16 13:05:11;;;;;;;1.90;1.60;;;;;;;;;;6181348;28;19922;-82
2022/06/16 13:08:15;;;;;;;2.67;1.48;;;;;;;;;;6184348;28;20042;-82
2022/06/16 13:11:25;;;;;;;2.33;1.30;;;;;;;;;;6178404;28;20121;-82
2022/06/16 13:14:30;;;;;;;1.70;1.60;;;;;;;;;;6177982;28;20182;-81
2022/06/16 13:17:45;;;;;;;1.30;1.20;;;;;;;;;;6174484;28;20376;-81
2022/06/16 13:20:51;;;;;;;2.92;1.63;;;;;;;;;;6183075;28;20043;-80
2022/06/16 13:24:02;;;;;;;2.42;1.38;;;;;;;;;;6177311;28;20052;-79
2022/06/16 13:27:12;;;;;;;3.28;1.50;;;;;;;;;;6183151;28;20043;-81
2022/06/16 13:30:55;;;;;;;1.52;1.42;;;;;;;;;;6180138;28;20046;-80
2022/06/16 13:33:57;;;;;;;1.95;1.55;;;;;;;;;;6184070;28;20065;-80
2022/06/16 13:36:58;;;;;;;1.38;1.25;;;;;;;;;;6178275;28;20048;-81
2022/06/16 13:40:07;;;;;;;2.00;1.40;;;;;;;;;;6178617;28;20157;-81
2022/06/16 13:43:15;;;;;;;1.23;1.20;;;;;;;;;;6176589;28;20125;-81
2022/06/16 13:46:16;;;;;;;1.60;1.33;;;;;;;;;;6179248;28;20058;-80
2022/06/16 13:49:24;;;;;;;4.38;1.50;;;;;;;;;;6180881;28;20049;-84
2022/06/16 13:52:33;;;;;;;1.20;1.10;;;;;;;;;;6180302;28;20054;-79
2022/06/16 13:55:41;;;;;;;2.45;1.05;;;;;;;;;;6178319;28;20137;-80
2022/06/16 13:58:52;;;;;;;1.77;1.30;;;;;;;;;;6182309;28;20102;-79
2022/06/16 14:02:18;;;;;;;2.67;1.23;;;;;;;;;;6178532;28;20046;-81
2022/06/16 14:05:29;;;;;;;2.80;1.20;;;;;;;;;;6178032;28;20054;-78
2022/06/16 14:08:32;;;;;;;2.33;1.30;;;;;;;;;;6184429;28;20093;-82
2022/06/16 14:11:36;;;;;;;1.23;1.10;;;;;;;;;;6190183;28;20133;-79
2022/06/16 14:14:55;;;;;;;3.08;1.25;;;;;;;;;;6175376;28;20825;-79
2022/06/16 14:18:13;;;;;;;1.23;0.90;;;;;;;;;;6176801;28;20189;-78
2022/06/16 14:21:18;;;;;;;1.75;1.00;;;;;;;;;;6174934;28;20051;-80
2022/06/16 14:24:27;;;;;;;1.38;1.02;;;;;;;;;;6169991;28;20130;-84
2022/06/16 14:27:38;;;;;;;1.15;0.93;;;;;;;;;;6179057;28;20110;-83
2022/06/16 14:30:46;;;;;;;2.53;1.00;;;;;;;;;;6175243;28;20042;-80
2022/06/16 14:34:00;;;;;;;1.75;1.00;;;;;;;;;;6181321;28;20053;-81
2022/06/16 14:37:12;;;;;;;1.33;1.02;;;;;;;;;;6172645;28;20074;-78
2022/06/16 14:40:30;;;;;;;2.20;1.13;;;;;;;;;;6179840;28;20153;-79
2022/06/16 14:43:46;;;;;;;1.65;1.00;;;;;;;;;;6180576;28;20136;-80
2022/06/16 14:47:15;;;;;;;0.75;0.75;;;;;;;;;;6174988;28;20050;-80
2022/06/16 14:50:24;;;;;;;1.40;1.05;;;;;;;;;;6180091;28;20038;-79
2022/06/16 14:53:37;;;;;;;2.03;0.90;;;;;;;;;;6156895;28;20173;-78
2022/06/16 14:56:50;;;;;;;2.35;0.80;;;;;;;;;;6171583;28;20469;-81
2022/06/16 14:59:58;;;;;;;2.05;1.00;;;;;;;;;;6165510;28;20038;-81
2022/06/16 15:03:06;;;;;;;0.80;0.60;;;;;;;;;;6165134;28;20068;-80
2022/06/16 15:06:09;;;;;;;2.50;0.88;;;;;;;;;;6166680;28;20153;-81
2022/06/16 15:09:17;;;;;;;2.15;1.17;;;;;;;;;;6176728;28;20158;-81
2022/06/16 15:12:19;;;;;;;1.48;0.80;;;;;;;;;;6180131;28;20102;-79
2022/06/16 15:15:24;;;;;;;1.83;0.90;;;;;;;;;;6189758;28;20122;-80
2022/06/16 15:18:33;;;;;;;1.08;0.77;;;;;;;;;;6158896;28;20117;-83
2022/06/16 15:21:35;;;;;;;0.95;0.80;;;;;;;;;;6167682;28;20043;-80
2022/06/16 15:24:39;;;;;;;;;;;;;;;;;;6171112;28;20185;-79
2022/06/16 15:27:44;;;;;;;1.30;0.73;;;;;;;;;;6176785;28;19989;-81
2022/06/16 15:30:48;;;;;;;1.20;0.80;;;;;;;;;;6172553;28;20051;-81
2022/06/16 15:37:26;;;;;;;2.80;0.88;;;;;;;;;;6177719;28;20042;-81
2022/06/16 15:40:35;;;;;;;1.55;0.68;;;;;;;;;;6162861;28;20046;-80
2022/06/16 15:43:37;;;;;;;1.58;0.90;;;;;;;;;;6171662;28;20062;-80
2022/06/16 15:46:46;;;;;;;3.03;0.90;;;;;;;;;;6177984;28;20062;-81
2022/06/16 15:50:01;;;;;;;2.28;0.93;;;;;;;;;;6186283;28;20061;-80
2022/06/16 15:53:11;;;;;;;1.08;0.60;;;;;;;;;;6178656;28;20050;-79
2022/06/16 15:56:30;;;;;;;1.65;0.77;;;;;;;;;;6164138;28;20497;-80
2022/06/16 15:59:51;;;;;;;1.10;0.75;;;;;;;;;;6163094;28;20126;-82
2022/06/16 16:02:56;;;;;;;1.80;0.70;;;;;;;;;;6182967;28;20775;-79
2022/06/16 16:05:59;;;;;;;1.75;0.70;;;;;;;;;;6156184;28;20049;-80
2022/06/16 16:09:07;;;;;;;1.05;0.80;;;;;;;;;;6179180;28;20042;-79
2022/06/16 16:12:23;;;;;;;1.15;0.70;;;;;;;;;;6181833;28;20125;-80
2022/06/16 16:15:25;;;;;;;1.83;0.82;;;;;;;;;;6181039;28;20139;-77
2022/06/16 16:18:30;;;;;;;3.80;0.80;;;;;;;;;;6182442;28;20134;-77
2022/06/16 16:21:36;;;;;;;1.52;0.70;;;;;;;;;;6155788;28;20069;-79
2022/06/16 16:24:43;;;;;;;0.70;0.70;;;;;;;;;;6178620;28;20050;-80
2022/06/16 16:27:50;;;;;;;1.70;0.75;;;;;;;;;;6182843;28;20155;-79
2022/06/16 16:30:55;;;;;;;1.00;0.80;;;;;;;;;;6176260;28;20481;-77
2022/06/16 16:34:00;;;;;;;2.60;0.80;;;;;;;;;;6184125;28;20073;-77
2022/06/16 16:37:33;;;;;;;1.60;0.80;;;;;;;;;;6176819;28;20129;-79
2022/06/16 16:43:59;;;;;;;1.20;0.80;;;;;;;;;;6179014;28;19929;-77
2022/06/16 16:47:04;;;;;;;1.75;0.63;;;;;;;;;;6176052;28;20035;-77
2022/06/16 16:50:19;;;;;;;0.68;0.57;;;;;;;;;;6163061;28;20062;-79
2022/06/16 16:53:23;;;;;;;1.23;0.70;;;;;;;;;;6174815;28;20051;-78
2022/06/16 16:56:35;;;;;;;1.25;0.77;;;;;;;;;;6170508;28;20137;-79
2022/06/16 16:59:39;;;;;;;0.60;0.60;;;;;;;;;;6167207;28;20058;-79
2022/06/16 17:02:41;;;;;;;1.25;0.80;;;;;;;;;;6182456;28;20525;-80
2022/06/16 17:05:42;;;;;;;2.78;0.70;;;;;;;;;;6170318;28;20043;-80
2022/06/16 17:08:44;;;;;;;0.60;0.60;;;;;;;;;;6181995;28;20042;-80
2022/06/16 17:11:51;;;;;;;1.43;0.80;;;;;;;;;;6175442;28;20050;-81
2022/06/16 17:14:53;;;;;;;2.45;0.75;;;;;;;;;;6192139;28;20084;-78
2022/06/16 17:17:58;;;;;;;1.00;0.63;;;;;;;;;;6147036;28;20133;-80
2022/06/16 17:20:59;;;;;;;1.50;0.80;;;;;;;;;;6177991;28;20050;-79
2022/06/16 17:24:01;;;;;;;1.55;0.90;;;;;;;;;;6155696;28;20058;-80
2022/06/16 17:27:05;;;;;;;2.40;0.90;;;;;;;;;;6177178;28;20062;-79
2022/06/16 17:30:07;;;;;;;0.82;0.82;;;;;;;;;;6173424;28;20056;-80
2022/06/16 17:33:11;;;;;;;5.90;1.13;;;;;;;;;;6181419;28;20046;-80
2022/06/16 17:36:16;;;;;;;1.02;0.90;;;;;;;;;;6181173;28;20046;-78
2022/06/16 17:39:24;;;;;;;1.23;0.98;;;;;;;;;;6167235;28;20070;-79
2022/06/16 17:42:26;;;;;;;2.53;0.98;;;;;;;;;;6151179;28;20090;-79
2022/06/16 17:45:29;;;;;;;1.73;1.02;;;;;;;;;;6165179;28;20078;-80
2022/06/16 17:48:31;;;;;;;1.85;1.10;;;;;;;;;;6183433;28;20050;-80
2022/06/16 18:01:42;;;;;;;2.25;1.23;;;;;;;;;;6174605;28;20102;-79
2022/06/16 18:04:43;;;;;;;2.38;1.40;;;;;;;;;;6158054;28;20043;-79
2022/06/16 18:07:47;;;;;;;2.72;1.20;;;;;;;;;;6154962;28;20126;-77
2022/06/16 18:10:49;;;;;;;1.67;1.27;;;;;;;;;;6141837;28;20139;-75
2022/06/16 18:13:53;;;;;;;1.25;1.15;;;;;;;;;;6174642;28;20045;-75
2022/06/16 18:16:55;;;;;;;1.50;1.27;;;;;;;;;;6171139;28;20077;-78
2022/06/16 18:19:56;;;;;;;1.45;1.33;;;;;;;;;;6175807;28;20056;-77
2022/06/16 18:23:01;;;;;;;2.00;1.58;;;;;;;;;;6172669;28;20412;-77
2022/06/16 18:26:03;;;;;;;4.20;1.75;;;;;;;;;;6177886;28;20038;-76
2022/06/16 18:29:05;;;;;;;1.53;1.43;;;;;;;;;;6157460;28;20174;-76
2022/06/16 18:32:07;;;;;;;2.55;1.70;;;;;;;;;;6186831;28;20048;-76
2022/06/16 18:35:24;;;;;;;3.08;1.52;;;;;;;;;;6188875;28;20053;-77
2022/06/16 18:38:26;;;;;;;2.40;1.40;;;;;;;;;;6166693;28;20047;-77
2022/06/16 18:41:27;;;;;;;1.55;1.45;;;;;;;;;;6144432;28;20526;-77
2022/06/16 18:44:29;;;;;;;1.90;1.70;;;;;;;;;;6164763;28;20524;-77
2022/06/16 18:47:32;;;;;;;2.50;1.75;;;;;;;;;;6180756;28;20046;-77
2022/06/16 18:50:33;;;;;;;1.98;1.50;;;;;;;;;;6188600;28;20467;-78
2022/06/16 18:53:35;;;;;;;2.78;1.50;;;;;;;;;;6180253;28;20047;-76
2022/06/16 18:56:37;;;;;;;1.80;1.70;;;;;;;;;;6176022;28;20140;-78
2022/06/16 18:59:39;;;;;;;1.83;1.70;;;;;;;;;;6175489;28;20054;-78
2022/06/16 19:02:45;;;;;;;1.60;1.50;;;;;;;;;;6186921;28;20070;-78
2022/06/16 19:05:47;;;;;;;1.98;1.60;;;;;;;;;;6183031;28;20047;-79
2022/06/16 19:08:48;;;;;;;4.38;1.80;;;;;;;;;;6153805;28;20059;-78
2022/06/16 19:15:11;;;;;;;1.67;1.55;;;;;;;;;;6154085;28;20043;-77
2022/06/16 19:18:17;;;;;;;2.47;1.70;;;;;;;;;;6177237;28;20060;-77
2022/06/16 19:21:24;;;;;;;4.15;1.80;;;;;;;;;;6181320;28;20047;-76
2022/06/16 19:24:26;;;;;;;3.67;1.60;;;;;;;;;;6181009;28;20189;-77
2022/06/16 19:27:27;;;;;;;2.28;1.60;;;;;;;;;;6195201;28;20051;-76
2022/06/16 19:30:39;;;;;;;2.10;1.60;;;;;;;;;;6204566;28;20174;-77
2022/06/16 19:33:41;;;;;;;2.47;1.55;;;;;;;;;;6184863;28;20045;-78